createdAt,value
2023-02-14T00:01:44.562Z,16.35
2023-02-14T00:04:30.627Z,19.23
2023-02-14T00:07:16.895Z,26.58
2023-02-14T00:10:02.181Z,17.70
2023-02-14T00:12:47.671Z,17.48
2023-02-14T00:15:32.914Z,17.48
2023-02-14T00:18:19.725Z,12.70
2023-02-14T00:21:05.274Z,12.75
2023-02-14T00:23:50.371Z,9.35
2023-02-14T00:26:38.720Z,10.05
2023-02-14T00:29:28.103Z,14.32
2023-02-14T00:32:13.607Z,16.77
2023-02-14T00:35:00.255Z,19.90
2023-02-14T00:37:47.525Z,22.33
2023-02-14T00:40:32.985Z,16.73
2023-02-14T00:43:18.484Z,21.17
2023-02-14T00:46:04.148Z,18.58
2023-02-14T00:48:50.240Z,13.18
2023-02-14T00:51:35.765Z,11.13
2023-02-14T00:54:21.268Z,12.25
2023-02-14T00:57:06.997Z,16.80
2023-02-14T00:59:54.564Z,10.63
2023-02-14T01:02:40.538Z,11.10
2023-02-14T01:05:26.676Z,13.77
2023-02-14T01:08:12.214Z,13.00
2023-02-14T01:10:58.131Z,13.68
2023-02-14T01:13:47.317Z,13.10
2023-02-14T01:16:36.783Z,17.10
2023-02-14T01:19:22.088Z,10.30
2023-02-14T01:22:07.545Z,10.45
2023-02-14T01:24:53.764Z,11.73
2023-02-14T01:27:40.214Z,11.30
2023-02-14T01:30:25.845Z,18.65
2023-02-14T01:33:12.364Z,11.63
2023-02-14T01:35:58.418Z,13.98
2023-02-14T01:38:44.200Z,11.68
2023-02-14T01:41:32.595Z,13.85
2023-02-14T01:44:18.028Z,11.88
2023-02-14T01:47:07.570Z,13.15
2023-02-14T01:50:00.776Z,12.50
2023-02-14T01:52:55.665Z,14.18
2023-02-14T01:55:46.591Z,16.60
2023-02-14T01:58:37.020Z,18.13
2023-02-14T02:01:23.927Z,17.10
2023-02-14T02:04:15.586Z,17.80
2023-02-14T02:07:05.699Z,12.57
2023-02-14T02:09:57.046Z,12.55
2023-02-14T02:12:43.807Z,18.08
2023-02-14T02:15:34.058Z,14.70
2023-02-14T02:18:35.450Z,19.02
2023-02-14T02:21:33.667Z,18.25
2023-02-14T02:24:49.106Z,21.70
2023-02-14T02:27:44.759Z,20.00
2023-02-14T02:30:57.906Z,21.73
2023-02-14T02:33:43.878Z,24.00
2023-02-14T02:36:57.299Z,15.60
2023-02-14T02:40:11.417Z,20.17
2023-02-14T02:42:57.225Z,18.27
2023-02-14T02:46:04.428Z,17.58
2023-02-14T02:49:53.955Z,14.65
2023-02-14T02:53:04.275Z,11.57
2023-02-14T02:56:22.380Z,14.25
2023-02-14T02:59:43.349Z,11.45
2023-02-14T03:02:33.887Z,14.85
2023-02-14T03:05:19.606Z,12.57
2023-02-14T03:08:05.774Z,13.80
2023-02-14T03:10:53.700Z,10.63
2023-02-14T03:14:01.619Z,13.43
2023-02-14T03:17:04.749Z,12.93
2023-02-14T03:20:16.648Z,17.38
2023-02-14T03:23:18.085Z,10.98
2023-02-14T03:26:07.303Z,14.43
2023-02-14T03:28:57.974Z,13.13
2023-02-14T03:32:07.066Z,11.80
2023-02-14T03:35:21.539Z,10.60
2023-02-14T03:38:14.389Z,10.52
2023-02-14T03:41:07.444Z,12.95
2023-02-14T03:43:58.098Z,16.90
2023-02-14T03:46:52.611Z,11.55
2023-02-14T03:49:45.077Z,10.50
2023-02-14T03:52:34.248Z,10.00
2023-02-14T03:55:26.993Z,13.70
2023-02-14T03:58:17.069Z,10.30
2023-02-14T04:01:26.224Z,10.55
2023-02-14T04:04:17.964Z,9.70
2023-02-14T04:07:18.895Z,11.65
2023-02-14T04:10:05.187Z,8.80
2023-02-14T04:12:51.566Z,13.50
2023-02-14T04:15:37.496Z,10.10
2023-02-14T04:18:41.590Z,10.77
2023-02-14T04:21:30.243Z,10.32
2023-02-14T04:24:17.181Z,11.38
2023-02-14T04:27:12.213Z,13.20
2023-02-14T04:29:58.958Z,15.65
2023-02-14T04:32:45.329Z,10.30
2023-02-14T04:35:31.580Z,11.30
2023-02-14T04:38:17.798Z,15.50
2023-02-14T04:41:03.898Z,13.10
2023-02-14T04:43:49.489Z,12.98
2023-02-14T04:46:34.846Z,13.50
2023-02-14T04:49:20.330Z,11.57
2023-02-14T04:52:06.610Z,9.55
2023-02-14T04:54:52.221Z,11.02
2023-02-14T04:57:38.379Z,12.52
2023-02-14T05:00:24.892Z,9.52
2023-02-14T05:03:11.267Z,15.60
2023-02-14T05:05:57.189Z,11.90
2023-02-14T05:08:42.861Z,14.18
2023-02-14T05:11:30.302Z,15.82
2023-02-14T05:14:15.921Z,16.98
2023-02-14T05:17:01.358Z,18.55
2023-02-14T05:19:46.675Z,15.65
2023-02-14T05:22:32.945Z,12.75
2023-02-14T05:25:18.871Z,15.48
2023-02-14T05:28:04.901Z,10.93
2023-02-14T05:30:51.782Z,13.05
2023-02-14T05:33:37.761Z,17.73
2023-02-14T05:36:26.888Z,17.95
2023-02-14T05:39:14.638Z,24.77
2023-02-14T05:42:00.270Z,19.00
2023-02-14T05:44:46.720Z,18.02
2023-02-14T05:47:32.654Z,17.13
2023-02-14T05:50:18.505Z,13.77
2023-02-14T05:53:05.630Z,21.48
2023-02-14T05:55:53.751Z,14.02
2023-02-14T05:58:39.737Z,13.85
2023-02-14T06:01:25.556Z,11.88
2023-02-14T06:04:11.469Z,14.65
2023-02-14T06:06:58.393Z,20.23
2023-02-14T06:09:45.566Z,17.23
2023-02-14T06:12:31.218Z,13.63
2023-02-14T06:15:19.438Z,12.68
2023-02-14T06:18:07.179Z,10.35
2023-02-14T06:20:55.751Z,9.15
2023-02-14T06:23:42.410Z,11.07
2023-02-14T06:26:29.601Z,8.75
2023-02-14T06:29:18.481Z,10.30
2023-02-14T06:32:08.055Z,11.43
2023-02-14T06:34:54.024Z,11.98
2023-02-14T06:37:41.949Z,13.02
2023-02-14T06:40:29.087Z,16.42
2023-02-14T06:43:14.680Z,12.18
2023-02-14T06:46:01.313Z,12.48
2023-02-14T06:48:47.542Z,10.35
2023-02-14T06:51:33.373Z,16.83
2023-02-14T06:54:19.770Z,19.60
2023-02-14T06:57:06.124Z,17.38
2023-02-14T06:59:53.153Z,13.50
2023-02-14T07:02:38.872Z,24.40
2023-02-14T07:05:27.268Z,22.13
2023-02-14T07:08:13.543Z,16.40
2023-02-14T07:11:00.086Z,20.55
2023-02-14T07:13:49.349Z,18.48
2023-02-14T07:16:37.682Z,12.82
2023-02-14T07:19:33.911Z,13.27
2023-02-14T07:22:24.145Z,12.48
2023-02-14T07:25:16.163Z,15.63
2023-02-14T07:28:07.060Z,26.25
2023-02-14T07:30:53.891Z,18.55
2023-02-14T07:33:40.067Z,18.10
2023-02-14T07:36:26.498Z,28.40
2023-02-14T07:39:11.784Z,18.48
2023-02-14T07:41:59.920Z,20.70
2023-02-14T07:44:46.844Z,25.52
2023-02-14T07:47:32.607Z,28.42
2023-02-14T07:50:18.900Z,19.25
2023-02-14T07:53:05.712Z,22.55
2023-02-14T07:55:56.611Z,18.85
2023-02-14T07:58:42.428Z,15.88
2023-02-14T08:01:29.510Z,22.58
2023-02-14T08:04:16.582Z,11.95
2023-02-14T08:07:01.960Z,13.70
2023-02-14T08:09:48.875Z,21.75
2023-02-14T08:12:56.309Z,12.48
2023-02-14T08:16:01.814Z,11.30
2023-02-14T08:18:47.641Z,16.98
2023-02-14T08:21:34.092Z,10.80
2023-02-14T08:24:28.549Z,13.23
2023-02-14T08:31:12.390Z,10.73
2023-02-14T08:33:59.600Z,14.43
2023-02-14T08:36:45.727Z,14.32
2023-02-14T08:39:33.000Z,11.18
2023-02-14T08:42:18.285Z,10.10
2023-02-14T08:45:08.882Z,14.27
2023-02-14T08:47:55.395Z,19.67
2023-02-14T08:50:41.216Z,16.23
2023-02-14T08:53:26.866Z,18.90
2023-02-14T08:56:14.946Z,54.80
2023-02-14T08:59:00.976Z,21.50
2023-02-14T09:01:46.528Z,21.70
2023-02-14T09:04:35.462Z,15.65
2023-02-14T09:07:22.195Z,19.90
2023-02-14T09:10:08.944Z,12.80
2023-02-14T09:12:54.824Z,13.48
2023-02-14T09:15:40.663Z,13.82
2023-02-14T09:18:26.129Z,10.15
2023-02-14T09:21:14.843Z,12.07
2023-02-14T09:24:00.460Z,12.30
2023-02-14T09:26:45.935Z,15.82
2023-02-14T09:29:32.762Z,17.33
2023-02-14T09:32:19.219Z,16.77
2023-02-14T09:35:06.885Z,17.17
2023-02-14T09:37:52.449Z,16.50
2023-02-14T09:40:37.957Z,18.33
2023-02-14T09:43:39.396Z,14.00
2023-02-14T09:46:26.716Z,18.60
2023-02-14T09:49:19.870Z,15.13
2023-02-14T09:52:09.875Z,17.25
2023-02-14T09:55:01.322Z,17.98
2023-02-14T09:57:53.532Z,16.55
2023-02-14T10:00:46.977Z,9.70
2023-02-14T10:04:01.049Z,13.27
2023-02-14T10:07:10.282Z,14.02
2023-02-14T10:10:04.068Z,26.30
2023-02-14T10:13:08.201Z,16.75
2023-02-14T10:16:05.379Z,18.23
2023-02-14T10:19:18.739Z,10.68
2023-02-14T10:22:12.806Z,15.27
2023-02-14T10:25:06.604Z,14.35
2023-02-14T10:27:55.620Z,11.95
2023-02-14T10:30:58.873Z,15.82
2023-02-14T10:33:58.008Z,11.43
2023-02-14T10:37:02.827Z,13.13
2023-02-14T10:40:10.024Z,14.35
2023-02-14T10:43:23.106Z,14.65
2023-02-14T10:46:18.269Z,15.23
2023-02-14T10:49:22.704Z,12.85
2023-02-14T10:52:19.609Z,13.50
2023-02-14T10:55:41.490Z,21.67
2023-02-14T10:58:29.868Z,20.38
2023-02-14T11:01:18.097Z,16.40
2023-02-14T11:04:08.795Z,17.05
2023-02-14T11:06:54.445Z,16.63
2023-02-14T11:09:40.242Z,15.45
2023-02-14T11:12:40.482Z,14.63
2023-02-14T11:15:35.956Z,15.10
2023-02-14T11:18:32.031Z,15.10
2023-02-14T11:21:18.593Z,11.85
2023-02-14T11:24:17.860Z,11.55
2023-02-14T11:27:14.720Z,17.45
2023-02-14T11:30:21.626Z,15.82
2023-02-14T11:33:35.615Z,21.08
2023-02-14T11:36:21.620Z,15.40
2023-02-14T11:39:33.824Z,11.93
2023-02-14T11:42:40.473Z,12.30
2023-02-14T11:45:33.138Z,12.05
2023-02-14T11:48:37.187Z,12.77
2023-02-14T11:51:36.965Z,11.13
2023-02-14T11:54:32.285Z,9.60
2023-02-14T11:57:22.087Z,12.45
2023-02-14T12:00:20.229Z,14.48
2023-02-14T12:03:06.819Z,12.43
2023-02-14T12:05:57.699Z,11.20
2023-02-14T12:08:43.661Z,11.90
2023-02-14T12:11:30.326Z,13.10
2023-02-14T12:14:30.276Z,11.40
2023-02-14T12:17:38.215Z,10.60
2023-02-14T12:20:50.066Z,12.07
2023-02-14T12:23:45.002Z,14.40
2023-02-14T12:26:43.488Z,11.15
2023-02-14T12:29:40.293Z,12.95
2023-02-14T12:32:28.810Z,10.30
2023-02-14T12:35:17.720Z,14.77
2023-02-14T12:38:09.438Z,12.80
2023-02-14T12:41:07.261Z,12.30
2023-02-14T12:43:58.452Z,14.02
2023-02-14T12:47:00.357Z,12.95
2023-02-14T12:50:20.166Z,13.73
2023-02-14T12:53:35.804Z,16.92
2023-02-14T12:56:34.708Z,18.40
2023-02-14T12:59:40.967Z,13.77
2023-02-14T13:03:02.416Z,9.95
2023-02-14T13:05:55.191Z,9.02
2023-02-14T13:09:21.548Z,6.10
2023-02-14T13:12:07.533Z,13.88
2023-02-14T13:15:17.288Z,11.02
2023-02-14T13:18:17.648Z,12.48
2023-02-14T13:21:08.959Z,9.18
2023-02-14T13:24:03.579Z,12.30
2023-02-14T13:26:56.380Z,11.65
2023-02-14T13:29:50.667Z,10.02
2023-02-14T13:32:41.425Z,11.98
2023-02-14T13:35:29.164Z,7.55
2023-02-14T13:38:19.138Z,7.88
2023-02-14T13:41:07.719Z,8.85
2023-02-14T13:44:00.031Z,10.13
2023-02-14T13:46:50.117Z,11.45
2023-02-14T13:49:39.779Z,9.02
2023-02-14T13:52:48.813Z,9.35
2023-02-14T13:55:43.574Z,16.55
2023-02-14T13:58:29.553Z,10.77
2023-02-14T14:01:48.298Z,11.85
2023-02-14T14:04:36.645Z,10.60
2023-02-14T14:07:30.855Z,11.48
2023-02-14T14:10:45.956Z,10.95
2023-02-14T14:13:40.965Z,11.35
2023-02-14T14:16:31.652Z,14.48
2023-02-14T14:19:17.216Z,13.00
2023-02-14T14:22:14.493Z,12.10
2023-02-14T14:25:05.824Z,10.07
2023-02-14T14:27:51.250Z,11.70
2023-02-14T14:30:38.861Z,13.20
2023-02-14T14:33:34.067Z,14.85
2023-02-14T14:36:24.040Z,12.93
2023-02-14T14:39:10.866Z,14.50
2023-02-14T14:42:06.924Z,14.50
2023-02-14T14:44:57.310Z,11.57
2023-02-14T14:47:45.655Z,14.07
2023-02-14T14:50:33.772Z,10.77
2023-02-14T14:53:25.289Z,18.88
2023-02-14T14:56:30.929Z,13.10
2023-02-14T14:59:35.177Z,8.63
2023-02-14T15:02:25.095Z,11.13
2023-02-14T15:05:22.993Z,14.75
2023-02-14T15:08:33.120Z,10.20
2023-02-14T15:11:47.785Z,13.00
2023-02-14T15:14:37.323Z,13.50
2023-02-14T15:17:28.711Z,9.82
2023-02-14T15:20:18.819Z,18.33
2023-02-14T15:23:05.040Z,11.98
2023-02-14T15:25:52.593Z,13.85
2023-02-14T15:28:39.201Z,12.65
2023-02-14T15:31:29.683Z,13.95
2023-02-14T15:34:15.527Z,9.80
2023-02-14T15:37:06.693Z,14.60
2023-02-14T15:39:58.015Z,12.40
2023-02-14T15:42:45.189Z,11.48
2023-02-14T15:45:31.415Z,15.18
2023-02-14T15:48:27.298Z,13.52
2023-02-14T15:51:27.099Z,15.48
2023-02-14T15:54:41.698Z,12.73
2023-02-14T15:57:29.692Z,11.48
2023-02-14T16:00:22.947Z,13.30
2023-02-14T16:03:14.622Z,27.17
2023-02-14T16:06:00.397Z,19.60
2023-02-14T16:08:55.705Z,16.13
2023-02-14T16:11:41.533Z,17.33
2023-02-14T16:14:35.371Z,18.90
2023-02-14T16:17:33.546Z,15.00
2023-02-14T16:20:43.320Z,16.80
2023-02-14T16:23:29.376Z,12.60
2023-02-14T16:26:15.352Z,16.00
2023-02-14T16:29:16.026Z,13.75
2023-02-14T16:32:17.043Z,18.98
2023-02-14T16:35:03.339Z,14.70
2023-02-14T16:37:51.805Z,12.70
2023-02-14T16:40:37.805Z,13.98
2023-02-14T16:43:25.815Z,19.90
2023-02-14T16:46:16.068Z,14.80
2023-02-14T16:49:03.583Z,18.38
2023-02-14T16:51:49.322Z,17.10
2023-02-14T16:54:38.933Z,18.63
2023-02-14T16:57:32.438Z,16.50
2023-02-14T17:00:18.065Z,18.92
2023-02-14T17:03:07.084Z,17.95
2023-02-14T17:05:52.948Z,17.58
2023-02-14T17:08:43.679Z,13.85
2023-02-14T17:11:32.465Z,16.88
2023-02-14T17:14:23.567Z,15.52
2023-02-14T17:17:10.281Z,19.27
2023-02-14T17:19:56.033Z,16.02
2023-02-14T17:22:42.923Z,19.17
2023-02-14T17:25:31.450Z,20.75
2023-02-14T17:28:16.838Z,22.92
2023-02-14T17:31:03.573Z,22.13
2023-02-14T17:33:50.401Z,17.33
2023-02-14T17:36:37.845Z,18.98
2023-02-14T17:39:23.873Z,14.63
2023-02-14T17:42:11.735Z,15.18
2023-02-14T17:44:58.796Z,16.63
2023-02-14T17:47:45.189Z,16.90
2023-02-14T17:50:34.883Z,15.00
2023-02-14T17:53:20.925Z,15.95
2023-02-14T17:56:09.311Z,18.88
2023-02-14T17:58:55.265Z,13.85
2023-02-14T18:01:40.950Z,19.88
2023-02-14T18:04:26.441Z,13.20
2023-02-14T18:07:13.980Z,18.80
2023-02-14T18:09:59.448Z,24.60
2023-02-14T18:12:44.875Z,25.00
2023-02-14T18:15:30.837Z,34.97
2023-02-14T18:18:17.009Z,22.40
2023-02-14T18:21:04.895Z,17.95
2023-02-14T18:23:50.591Z,11.27
2023-02-14T18:26:38.436Z,14.85
2023-02-14T18:29:24.126Z,19.52
2023-02-14T18:32:10.354Z,20.83
2023-02-14T18:34:55.831Z,12.75
2023-02-14T18:37:42.026Z,18.00
2023-02-14T18:40:28.146Z,18.33
2023-02-14T18:43:14.100Z,19.38
2023-02-14T18:46:04.536Z,23.75
2023-02-14T18:48:51.005Z,17.98
2023-02-14T18:51:39.501Z,22.48
2023-02-14T18:54:25.150Z,16.05
2023-02-14T18:57:10.923Z,16.88
2023-02-14T18:59:57.454Z,17.13
2023-02-14T19:02:46.033Z,17.45
2023-02-14T19:05:35.546Z,15.25
2023-02-14T19:08:22.818Z,10.27
2023-02-14T19:11:18.256Z,17.08
2023-02-14T19:14:11.207Z,19.98
2023-02-14T19:16:57.891Z,13.40
2023-02-14T19:19:46.079Z,14.30
2023-02-14T19:22:37.380Z,14.20
2023-02-14T19:25:23.956Z,14.80
2023-02-14T19:28:12.082Z,24.23
2023-02-14T19:30:59.881Z,19.80
2023-02-14T19:33:47.926Z,15.93
2023-02-14T19:36:38.301Z,16.85
2023-02-14T19:39:29.655Z,24.70
2023-02-14T19:42:16.332Z,16.05
2023-02-14T19:45:03.888Z,13.77
2023-02-14T19:47:53.737Z,19.48
2023-02-14T19:50:40.838Z,20.10
2023-02-14T19:53:29.297Z,13.93
2023-02-14T19:56:25.012Z,35.83
2023-02-14T19:59:16.442Z,28.00
2023-02-14T20:02:03.055Z,25.95
2023-02-14T20:04:50.290Z,19.98
2023-02-14T20:07:36.068Z,23.45
2023-02-14T20:10:22.383Z,17.05
2023-02-14T20:13:09.763Z,31.38
2023-02-14T20:15:55.314Z,28.85
2023-02-14T20:18:41.277Z,25.00
2023-02-14T20:21:28.545Z,27.80
2023-02-14T20:24:18.648Z,21.70
2023-02-14T20:27:05.103Z,17.35
2023-02-14T20:29:52.108Z,20.23
2023-02-14T20:32:38.438Z,26.60
2023-02-14T20:35:25.971Z,25.42
2023-02-14T20:38:12.201Z,22.88
2023-02-14T20:40:58.617Z,25.90
2023-02-14T20:43:47.620Z,21.40
2023-02-14T20:46:35.077Z,23.23
2023-02-14T20:49:23.357Z,22.30
2023-02-14T20:52:08.961Z,33.08
2023-02-14T20:54:55.133Z,27.80
2023-02-14T20:57:42.302Z,21.52
2023-02-14T21:00:30.148Z,19.17
2023-02-14T21:03:17.385Z,20.88
2023-02-14T21:06:05.623Z,25.33
2023-02-14T21:08:51.642Z,24.70
2023-02-14T21:11:37.342Z,29.85
2023-02-14T21:14:23.092Z,25.73
2023-02-14T21:17:08.956Z,43.47
2023-02-14T21:19:54.198Z,74.90
2023-02-14T21:22:40.078Z,45.17
2023-02-14T21:25:26.748Z,49.70
2023-02-14T21:28:15.270Z,19.23
2023-02-14T21:31:09.562Z,35.17
2023-02-14T21:33:58.399Z,32.63
2023-02-14T21:36:45.053Z,34.85
2023-02-14T21:39:38.003Z,33.40
2023-02-14T21:42:24.833Z,26.38
2023-02-14T21:45:31.664Z,20.27
2023-02-14T21:48:35.961Z,24.83
2023-02-14T21:51:23.682Z,28.35
2023-02-14T21:54:09.422Z,29.92
2023-02-14T21:56:56.186Z,22.73
2023-02-14T21:59:45.584Z,24.42
2023-02-14T22:02:32.231Z,21.23
2023-02-14T22:05:17.742Z,27.17
2023-02-14T22:08:05.891Z,24.75
2023-02-14T22:10:52.028Z,24.55
2023-02-14T22:13:38.525Z,27.42
2023-02-14T22:16:25.336Z,29.17
2023-02-14T22:19:15.246Z,23.10
2023-02-14T22:22:01.605Z,23.85
2023-02-14T22:30:51.044Z,21.80
2023-02-14T22:33:37.894Z,21.80
2023-02-14T22:36:23.929Z,22.48
2023-02-14T22:39:13.922Z,19.88
2023-02-14T22:42:02.426Z,24.15
2023-02-14T22:44:48.107Z,19.88
2023-02-14T22:47:36.623Z,22.83
2023-02-14T22:50:22.071Z,17.33
2023-02-14T22:53:09.517Z,19.08
2023-02-14T22:55:55.625Z,31.58
2023-02-14T22:58:41.844Z,30.65
2023-02-14T23:01:28.185Z,32.13
2023-02-14T23:04:15.924Z,19.08
2023-02-14T23:07:01.542Z,21.75
2023-02-14T23:09:50.252Z,17.15
2023-02-14T23:12:54.111Z,20.05
2023-02-14T23:16:00.325Z,18.80
2023-02-14T23:19:04.456Z,22.30
2023-02-14T23:21:55.916Z,20.70
2023-02-14T23:24:45.643Z,27.17
2023-02-14T23:27:38.239Z,23.25
2023-02-14T23:30:24.041Z,20.60
2023-02-14T23:33:11.702Z,29.33
2023-02-14T23:35:57.113Z,30.15
2023-02-14T23:38:42.594Z,17.73
2023-02-14T23:41:46.679Z,17.90
2023-02-14T23:44:33.425Z,22.58
2023-02-14T23:47:18.832Z,18.67
2023-02-14T23:50:04.529Z,21.40
2023-02-14T23:52:51.095Z,22.48
2023-02-14T23:55:36.895Z,22.95
2023-02-14T23:58:22.222Z,21.25
